sensor_id;sensor_type;location;lat;lon;timestamp;temperature;humidity
12438;DHT22;6283;51.330;12.374;2023-05-20T00:01:17;13.40;1.00
12438;DHT22;6283;51.330;12.374;2023-05-20T00:03:42;13.60;1.00
12438;DHT22;6283;51.330;12.374;2023-05-20T00:06:08;13.60;1.00
12438;DHT22;6283;51.330;12.374;2023-05-20T00:08:33;13.40;1.00
12438;DHT22;6283;51.330;12.374;2023-05-20T00:10:59;13.40;1.00
12438;DHT22;6283;51.330;12.374;2023-05-20T00:13:25;13.30;1.00
12438;DHT22;6283;51.330;12.374;2023-05-20T00:15:51;13.30;1.00
12438;DHT22;6283;51.330;12.374;2023-05-20T00:18:17;13.60;1.00
12438;DHT22;6283;51.330;12.374;2023-05-20T00:20:43;13.30;1.00
12438;DHT22;6283;51.330;12.374;2023-05-20T00:23:09;13.40;1.00
12438;DHT22;6283;51.330;12.374;2023-05-20T00:25:35;13.20;1.00
12438;DHT22;6283;51.330;12.374;2023-05-20T00:28:00;13.30;1.00
12438;DHT22;6283;51.330;12.374;2023-05-20T00:30:26;13.50;1.00
12438;DHT22;6283;51.330;12.374;2023-05-20T00:32:51;13.30;1.00
12438;DHT22;6283;51.330;12.374;2023-05-20T00:35:17;13.30;1.00
12438;DHT22;6283;51.330;12.374;2023-05-20T00:37:42;13.10;1.00
12438;DHT22;6283;51.330;12.374;2023-05-20T00:40:08;13.60;1.00
12438;DHT22;6283;51.330;12.374;2023-05-20T00:42:34;13.10;1.00
12438;DHT22;6283;51.330;12.374;2023-05-20T00:45:00;13.20;1.00
12438;DHT22;6283;51.330;12.374;2023-05-20T00:47:28;13.30;1.00
12438;DHT22;6283;51.330;12.374;2023-05-20T00:49:55;13.30;1.00
12438;DHT22;6283;51.330;12.374;2023-05-20T00:52:21;13.40;1.00
12438;DHT22;6283;51.330;12.374;2023-05-20T00:54:48;13.40;1.00
12438;DHT22;6283;51.330;12.374;2023-05-20T00:57:15;13.20;1.00
12438;DHT22;6283;51.330;12.374;2023-05-20T00:59:41;13.20;1.00
12438;DHT22;6283;51.330;12.374;2023-05-20T01:02:07;13.30;1.00
12438;DHT22;6283;51.330;12.374;2023-05-20T01:04:33;13.40;1.00
12438;DHT22;6283;51.330;12.374;2023-05-20T01:07:01;13.50;1.00
12438;DHT22;6283;51.330;12.374;2023-05-20T01:09:29;13.40;1.00
12438;DHT22;6283;51.330;12.374;2023-05-20T01:14:48;13.20;1.00
12438;DHT22;6283;51.330;12.374;2023-05-20T01:17:15;13.40;1.00
12438;DHT22;6283;51.330;12.374;2023-05-20T01:19:46;13.50;1.00
12438;DHT22;6283;51.330;12.374;2023-05-20T01:22:13;13.50;1.00
12438;DHT22;6283;51.330;12.374;2023-05-20T01:24:44;13.40;1.00
12438;DHT22;6283;51.330;12.374;2023-05-20T01:27:11;13.30;1.00
12438;DHT22;6283;51.330;12.374;2023-05-20T01:29:38;13.40;1.00
12438;DHT22;6283;51.330;12.374;2023-05-20T01:32:06;13.40;1.00
12438;DHT22;6283;51.330;12.374;2023-05-20T01:34:34;13.60;1.00
12438;DHT22;6283;51.330;12.374;2023-05-20T01:37:02;13.40;1.00
12438;DHT22;6283;51.330;12.374;2023-05-20T01:39:30;13.50;1.00
12438;DHT22;6283;51.330;12.374;2023-05-20T01:41:56;13.40;1.00
12438;DHT22;6283;51.330;12.374;2023-05-20T01:44:22;13.40;1.00
12438;DHT22;6283;51.330;12.374;2023-05-20T01:46:49;13.50;1.00
12438;DHT22;6283;51.330;12.374;2023-05-20T01:49:15;13.20;1.00
12438;DHT22;6283;51.330;12.374;2023-05-20T01:51:40;13.40;1.00
12438;DHT22;6283;51.330;12.374;2023-05-20T01:54:06;13.50;1.00
12438;DHT22;6283;51.330;12.374;2023-05-20T01:56:33;13.30;1.00
12438;DHT22;6283;51.330;12.374;2023-05-20T01:58:59;13.50;1.00
12438;DHT22;6283;51.330;12.374;2023-05-20T02:01:24;13.40;1.00
12438;DHT22;6283;51.330;12.374;2023-05-20T02:03:50;13.50;1.00
12438;DHT22;6283;51.330;12.374;2023-05-20T02:06:16;13.40;1.00
12438;DHT22;6283;51.330;12.374;2023-05-20T02:08:41;13.60;1.00
12438;DHT22;6283;51.330;12.374;2023-05-20T02:11:07;13.60;1.00
12438;DHT22;6283;51.330;12.374;2023-05-20T02:13:32;13.50;1.00
12438;DHT22;6283;51.330;12.374;2023-05-20T02:15:58;13.40;1.00
12438;DHT22;6283;51.330;12.374;2023-05-20T02:18:24;13.40;1.00
12438;DHT22;6283;51.330;12.374;2023-05-20T02:20:51;13.40;1.00
12438;DHT22;6283;51.330;12.374;2023-05-20T02:23:17;13.40;1.00
12438;DHT22;6283;51.330;12.374;2023-05-20T02:25:43;13.30;13.30
12438;DHT22;6283;51.330;12.374;2023-05-20T02:28:08;13.40;12.50
12438;DHT22;6283;51.330;12.374;2023-05-20T02:30:39;13.40;14.80
12438;DHT22;6283;51.330;12.374;2023-05-20T02:33:04;13.50;16.90
12438;DHT22;6283;51.330;12.374;2023-05-20T02:35:31;13.50;17.70
12438;DHT22;6283;51.330;12.374;2023-05-20T02:37:56;13.30;20.20
12438;DHT22;6283;51.330;12.374;2023-05-20T02:40:22;13.30;19.80
12438;DHT22;6283;51.330;12.374;2023-05-20T02:42:48;13.40;21.00
12438;DHT22;6283;51.330;12.374;2023-05-20T02:45:13;13.30;21.80
12438;DHT22;6283;51.330;12.374;2023-05-20T02:47:39;13.40;16.10
12438;DHT22;6283;51.330;12.374;2023-05-20T02:50:05;13.40;15.80
12438;DHT22;6283;51.330;12.374;2023-05-20T02:52:31;13.40;18.50
12438;DHT22;6283;51.330;12.374;2023-05-20T02:54:57;13.20;21.50
12438;DHT22;6283;51.330;12.374;2023-05-20T02:57:23;13.10;22.10
12438;DHT22;6283;51.330;12.374;2023-05-20T02:59:48;13.30;25.30
12438;DHT22;6283;51.330;12.374;2023-05-20T03:02:14;13.50;25.10
12438;DHT22;6283;51.330;12.374;2023-05-20T03:04:40;13.50;26.00
12438;DHT22;6283;51.330;12.374;2023-05-20T03:07:06;13.20;29.80
12438;DHT22;6283;51.330;12.374;2023-05-20T03:09:34;13.40;32.20
12438;DHT22;6283;51.330;12.374;2023-05-20T03:12:00;13.30;35.20
12438;DHT22;6283;51.330;12.374;2023-05-20T03:14:25;13.50;35.70
12438;DHT22;6283;51.330;12.374;2023-05-20T03:16:52;13.50;41.20
12438;DHT22;6283;51.330;12.374;2023-05-20T03:19:20;13.30;43.90
12438;DHT22;6283;51.330;12.374;2023-05-20T03:21:46;13.20;50.10
12438;DHT22;6283;51.330;12.374;2023-05-20T03:24:11;13.30;73.30
12438;DHT22;6283;51.330;12.374;2023-05-20T03:26:37;13.20;57.70
12438;DHT22;6283;51.330;12.374;2023-05-20T03:29:08;13.20;60.60
12438;DHT22;6283;51.330;12.374;2023-05-20T03:31:34;13.40;68.30
12438;DHT22;6283;51.330;12.374;2023-05-20T03:33:59;13.30;76.30
12438;DHT22;6283;51.330;12.374;2023-05-20T03:36:25;12.90;86.20
12438;DHT22;6283;51.330;12.374;2023-05-20T03:38:51;13.20;91.30
12438;DHT22;6283;51.330;12.374;2023-05-20T03:41:16;13.00;99.30
12438;DHT22;6283;51.330;12.374;2023-05-20T03:43:42;12.80;99.90
12438;DHT22;6283;51.330;12.374;2023-05-20T03:46:08;13.20;99.90
12438;DHT22;6283;51.330;12.374;2023-05-20T03:48:33;12.90;99.90
12438;DHT22;6283;51.330;12.374;2023-05-20T03:50:59;12.80;99.90
12438;DHT22;6283;51.330;12.374;2023-05-20T03:53:26;12.90;99.90
12438;DHT22;6283;51.330;12.374;2023-05-20T03:55:51;13.10;99.90
12438;DHT22;6283;51.330;12.374;2023-05-20T03:58:17;13.00;99.90
12438;DHT22;6283;51.330;12.374;2023-05-20T04:00:45;13.00;99.90
12438;DHT22;6283;51.330;12.374;2023-05-20T04:03:11;12.90;99.90
12438;DHT22;6283;51.330;12.374;2023-05-20T04:05:37;13.00;99.90
12438;DHT22;6283;51.330;12.374;2023-05-20T04:08:03;13.10;99.90
12438;DHT22;6283;51.330;12.374;2023-05-20T04:10:29;13.00;99.90
12438;DHT22;6283;51.330;12.374;2023-05-20T04:12:58;12.90;99.90
12438;DHT22;6283;51.330;12.374;2023-05-20T04:15:24;13.00;99.90
12438;DHT22;6283;51.330;12.374;2023-05-20T04:17:50;13.00;99.90
12438;DHT22;6283;51.330;12.374;2023-05-20T04:20:17;13.10;99.90
12438;DHT22;6283;51.330;12.374;2023-05-20T04:22:43;13.10;99.90
12438;DHT22;6283;51.330;12.374;2023-05-20T04:25:09;12.90;99.90
12438;DHT22;6283;51.330;12.374;2023-05-20T04:27:35;13.00;99.90
12438;DHT22;6283;51.330;12.374;2023-05-20T04:30:05;13.20;99.90
12438;DHT22;6283;51.330;12.374;2023-05-20T04:32:32;13.20;99.90
12438;DHT22;6283;51.330;12.374;2023-05-20T04:34:59;13.10;99.90
12438;DHT22;6283;51.330;12.374;2023-05-20T04:37:26;13.20;99.90
12438;DHT22;6283;51.330;12.374;2023-05-20T04:39:52;13.40;99.90
12438;DHT22;6283;51.330;12.374;2023-05-20T04:42:18;13.20;99.90
12438;DHT22;6283;51.330;12.374;2023-05-20T04:44:46;13.20;99.90
12438;DHT22;6283;51.330;12.374;2023-05-20T04:47:12;13.20;99.90
12438;DHT22;6283;51.330;12.374;2023-05-20T04:49:38;13.50;99.90
12438;DHT22;6283;51.330;12.374;2023-05-20T04:52:04;13.20;99.90
12438;DHT22;6283;51.330;12.374;2023-05-20T04:54:31;13.40;99.90
12438;DHT22;6283;51.330;12.374;2023-05-20T04:56:59;13.50;99.90
12438;DHT22;6283;51.330;12.374;2023-05-20T04:59:25;13.50;99.90
12438;DHT22;6283;51.330;12.374;2023-05-20T05:01:51;13.70;99.90
12438;DHT22;6283;51.330;12.374;2023-05-20T05:04:17;13.60;99.90
12438;DHT22;6283;51.330;12.374;2023-05-20T05:06:42;13.80;85.30
12438;DHT22;6283;51.330;12.374;2023-05-20T05:09:08;13.70;78.40
12438;DHT22;6283;51.330;12.374;2023-05-20T05:11:34;13.80;77.30
12438;DHT22;6283;51.330;12.374;2023-05-20T05:14:00;13.70;72.80
12438;DHT22;6283;51.330;12.374;2023-05-20T05:16:25;13.70;99.90
12438;DHT22;6283;51.330;12.374;2023-05-20T05:18:51;13.90;75.80
12438;DHT22;6283;51.330;12.374;2023-05-20T05:21:16;13.60;72.70
12438;DHT22;6283;51.330;12.374;2023-05-20T05:23:42;13.80;65.00
12438;DHT22;6283;51.330;12.374;2023-05-20T05:26:08;13.80;67.30
12438;DHT22;6283;51.330;12.374;2023-05-20T05:28:33;13.90;63.40
12438;DHT22;6283;51.330;12.374;2023-05-20T05:30:59;13.90;56.80
12438;DHT22;6283;51.330;12.374;2023-05-20T05:33:26;13.80;54.90
12438;DHT22;6283;51.330;12.374;2023-05-20T05:35:52;14.00;57.90
12438;DHT22;6283;51.330;12.374;2023-05-20T05:38:18;13.90;57.50
12438;DHT22;6283;51.330;12.374;2023-05-20T05:40:44;14.10;49.10
12438;DHT22;6283;51.330;12.374;2023-05-20T05:43:09;13.90;45.30
12438;DHT22;6283;51.330;12.374;2023-05-20T05:45:35;14.00;41.10
12438;DHT22;6283;51.330;12.374;2023-05-20T05:48:01;14.00;36.90
12438;DHT22;6283;51.330;12.374;2023-05-20T05:50:26;14.30;37.20
12438;DHT22;6283;51.330;12.374;2023-05-20T05:52:52;14.10;33.50
12438;DHT22;6283;51.330;12.374;2023-05-20T05:55:18;14.20;27.10
12438;DHT22;6283;51.330;12.374;2023-05-20T05:57:43;14.40;25.90
12438;DHT22;6283;51.330;12.374;2023-05-20T06:00:10;14.30;16.70
12438;DHT22;6283;51.330;12.374;2023-05-20T06:02:36;14.30;15.60
12438;DHT22;6283;51.330;12.374;2023-05-20T06:05:02;14.50;6.00
12438;DHT22;6283;51.330;12.374;2023-05-20T06:07:28;14.50;1.00
12438;DHT22;6283;51.330;12.374;2023-05-20T06:09:53;14.50;1.30
12438;DHT22;6283;51.330;12.374;2023-05-20T06:12:19;14.40;1.00
12438;DHT22;6283;51.330;12.374;2023-05-20T06:14:45;14.50;1.00
12438;DHT22;6283;51.330;12.374;2023-05-20T06:17:10;14.50;1.00
12438;DHT22;6283;51.330;12.374;2023-05-20T06:19:36;14.50;1.00
12438;DHT22;6283;51.330;12.374;2023-05-20T06:22:01;14.50;1.00
12438;DHT22;6283;51.330;12.374;2023-05-20T06:24:27;14.60;1.00
12438;DHT22;6283;51.330;12.374;2023-05-20T06:26:53;14.60;1.00
12438;DHT22;6283;51.330;12.374;2023-05-20T06:29:18;14.80;1.00
12438;DHT22;6283;51.330;12.374;2023-05-20T06:31:44;14.60;1.00
12438;DHT22;6283;51.330;12.374;2023-05-20T06:34:09;14.50;1.00
12438;DHT22;6283;51.330;12.374;2023-05-20T06:36:36;14.90;1.00
12438;DHT22;6283;51.330;12.374;2023-05-20T06:39:02;14.60;1.00
12438;DHT22;6283;51.330;12.374;2023-05-20T06:41:28;14.80;1.00
12438;DHT22;6283;51.330;12.374;2023-05-20T06:43:54;14.70;1.00
12438;DHT22;6283;51.330;12.374;2023-05-20T06:46:19;14.60;1.00
12438;DHT22;6283;51.330;12.374;2023-05-20T06:48:45;14.70;1.00
12438;DHT22;6283;51.330;12.374;2023-05-20T06:51:10;14.70;1.00
12438;DHT22;6283;51.330;12.374;2023-05-20T06:53:36;14.70;1.00
12438;DHT22;6283;51.330;12.374;2023-05-20T06:56:02;14.70;1.00
12438;DHT22;6283;51.330;12.374;2023-05-20T06:58:27;14.60;1.00
12438;DHT22;6283;51.330;12.374;2023-05-20T07:00:53;14.50;1.00
12438;DHT22;6283;51.330;12.374;2023-05-20T07:03:19;14.80;1.00
12438;DHT22;6283;51.330;12.374;2023-05-20T07:05:45;14.70;1.00
12438;DHT22;6283;51.330;12.374;2023-05-20T07:08:10;14.60;1.00
12438;DHT22;6283;51.330;12.374;2023-05-20T07:10:36;14.50;1.00
12438;DHT22;6283;51.330;12.374;2023-05-20T07:13:02;14.60;1.00
12438;DHT22;6283;51.330;12.374;2023-05-20T07:15:28;14.60;1.00
12438;DHT22;6283;51.330;12.374;2023-05-20T07:17:53;14.60;1.00
12438;DHT22;6283;51.330;12.374;2023-05-20T07:20:19;14.50;1.00
12438;DHT22;6283;51.330;12.374;2023-05-20T07:22:45;14.60;1.00
12438;DHT22;6283;51.330;12.374;2023-05-20T07:25:13;14.60;1.00
12438;DHT22;6283;51.330;12.374;2023-05-20T07:27:39;14.60;1.00
12438;DHT22;6283;51.330;12.374;2023-05-20T07:30:05;14.60;1.00
12438;DHT22;6283;51.330;12.374;2023-05-20T07:32:31;14.60;1.00
12438;DHT22;6283;51.330;12.374;2023-05-20T07:34:56;14.60;1.00
12438;DHT22;6283;51.330;12.374;2023-05-20T07:37:22;14.80;1.00
12438;DHT22;6283;51.330;12.374;2023-05-20T07:39:47;14.60;1.00
12438;DHT22;6283;51.330;12.374;2023-05-20T07:42:13;14.70;1.00
12438;DHT22;6283;51.330;12.374;2023-05-20T07:44:39;14.80;1.00
12438;DHT22;6283;51.330;12.374;2023-05-20T07:47:04;14.80;1.00
12438;DHT22;6283;51.330;12.374;2023-05-20T07:49:30;15.10;1.00
12438;DHT22;6283;51.330;12.374;2023-05-20T07:51:55;15.10;1.00
12438;DHT22;6283;51.330;12.374;2023-05-20T07:54:22;15.20;1.00
12438;DHT22;6283;51.330;12.374;2023-05-20T07:56:48;15.30;1.00
12438;DHT22;6283;51.330;12.374;2023-05-20T07:59:13;15.40;1.00
12438;DHT22;6283;51.330;12.374;2023-05-20T08:01:40;15.50;1.00
12438;DHT22;6283;51.330;12.374;2023-05-20T08:04:06;15.60;1.00
12438;DHT22;6283;51.330;12.374;2023-05-20T08:06:31;15.70;1.00
12438;DHT22;6283;51.330;12.374;2023-05-20T08:08:57;15.80;1.00
12438;DHT22;6283;51.330;12.374;2023-05-20T08:11:23;16.00;1.00
12438;DHT22;6283;51.330;12.374;2023-05-20T08:13:49;16.10;1.00
12438;DHT22;6283;51.330;12.374;2023-05-20T08:16:14;16.30;1.00
12438;DHT22;6283;51.330;12.374;2023-05-20T08:18:40;16.40;1.00
12438;DHT22;6283;51.330;12.374;2023-05-20T08:21:06;16.60;1.00
12438;DHT22;6283;51.330;12.374;2023-05-20T08:23:35;16.70;1.00
12438;DHT22;6283;51.330;12.374;2023-05-20T08:26:01;16.70;1.00
12438;DHT22;6283;51.330;12.374;2023-05-20T08:28:28;16.70;1.00
12438;DHT22;6283;51.330;12.374;2023-05-20T08:30:54;16.70;1.00
12438;DHT22;6283;51.330;12.374;2023-05-20T08:33:20;16.70;1.00
12438;DHT22;6283;51.330;12.374;2023-05-20T08:35:47;16.60;1.00
12438;DHT22;6283;51.330;12.374;2023-05-20T08:38:13;16.60;1.00
12438;DHT22;6283;51.330;12.374;2023-05-20T08:40:39;16.60;1.00
12438;DHT22;6283;51.330;12.374;2023-05-20T08:43:05;16.60;1.00
12438;DHT22;6283;51.330;12.374;2023-05-20T08:45:33;16.60;1.00
12438;DHT22;6283;51.330;12.374;2023-05-20T08:47:59;16.70;1.00
12438;DHT22;6283;51.330;12.374;2023-05-20T08:50:26;16.80;1.00
12438;DHT22;6283;51.330;12.374;2023-05-20T08:52:52;16.80;1.00
12438;DHT22;6283;51.330;12.374;2023-05-20T08:57:49;17.10;1.00
12438;DHT22;6283;51.330;12.374;2023-05-20T09:00:16;17.20;1.00
12438;DHT22;6283;51.330;12.374;2023-05-20T09:02:44;17.30;1.00
12438;DHT22;6283;51.330;12.374;2023-05-20T09:05:11;17.40;1.00
12438;DHT22;6283;51.330;12.374;2023-05-20T09:07:36;17.70;1.00
12438;DHT22;6283;51.330;12.374;2023-05-20T09:10:03;17.80;1.00
12438;DHT22;6283;51.330;12.374;2023-05-20T09:12:29;17.90;1.00
12438;DHT22;6283;51.330;12.374;2023-05-20T09:14:55;18.00;1.00
12438;DHT22;6283;51.330;12.374;2023-05-20T09:17:22;18.10;1.00
12438;DHT22;6283;51.330;12.374;2023-05-20T09:19:52;18.20;1.00
12438;DHT22;6283;51.330;12.374;2023-05-20T09:22:26;18.30;1.00
12438;DHT22;6283;51.330;12.374;2023-05-20T09:24:53;18.40;1.00
12438;DHT22;6283;51.330;12.374;2023-05-20T09:27:19;18.50;1.00
12438;DHT22;6283;51.330;12.374;2023-05-20T09:29:49;18.50;1.00
12438;DHT22;6283;51.330;12.374;2023-05-20T09:32:15;18.30;1.00
12438;DHT22;6283;51.330;12.374;2023-05-20T09:34:41;18.20;1.00
12438;DHT22;6283;51.330;12.374;2023-05-20T09:37:08;18.10;1.00
12438;DHT22;6283;51.330;12.374;2023-05-20T09:39:45;18.00;1.00
12438;DHT22;6283;51.330;12.374;2023-05-20T09:42:26;18.00;1.00
12438;DHT22;6283;51.330;12.374;2023-05-20T09:44:54;18.10;1.00
12438;DHT22;6283;51.330;12.374;2023-05-20T09:47:22;18.10;1.00
12438;DHT22;6283;51.330;12.374;2023-05-20T09:49:51;18.20;1.00
12438;DHT22;6283;51.330;12.374;2023-05-20T09:52:17;18.30;1.00
12438;DHT22;6283;51.330;12.374;2023-05-20T09:54:43;18.30;1.00
12438;DHT22;6283;51.330;12.374;2023-05-20T09:57:09;18.30;1.00
12438;DHT22;6283;51.330;12.374;2023-05-20T09:59:36;18.20;1.00
12438;DHT22;6283;51.330;12.374;2023-05-20T10:02:04;18.30;1.00
12438;DHT22;6283;51.330;12.374;2023-05-20T10:04:32;18.50;1.00
12438;DHT22;6283;51.330;12.374;2023-05-20T10:20:22;19.20;1.00
12438;DHT22;6283;51.330;12.374;2023-05-20T10:22:57;19.20;1.00
12438;DHT22;6283;51.330;12.374;2023-05-20T10:25:27;19.20;1.00
12438;DHT22;6283;51.330;12.374;2023-05-20T10:28:05;19.20;1.00
12438;DHT22;6283;51.330;12.374;2023-05-20T10:30:32;19.30;1.00
12438;DHT22;6283;51.330;12.374;2023-05-20T10:33:03;19.30;1.00
12438;DHT22;6283;51.330;12.374;2023-05-20T10:35:29;19.40;1.00
12438;DHT22;6283;51.330;12.374;2023-05-20T10:38:10;19.40;1.00
12438;DHT22;6283;51.330;12.374;2023-05-20T10:40:36;19.60;1.00
12438;DHT22;6283;51.330;12.374;2023-05-20T10:43:09;19.70;1.00
12438;DHT22;6283;51.330;12.374;2023-05-20T10:45:50;19.90;1.00
12438;DHT22;6283;51.330;12.374;2023-05-20T10:48:27;20.00;1.00
12438;DHT22;6283;51.330;12.374;2023-05-20T10:50:54;20.00;1.00
12438;DHT22;6283;51.330;12.374;2023-05-20T10:53:22;20.10;1.00
12438;DHT22;6283;51.330;12.374;2023-05-20T10:55:50;20.10;1.00
12438;DHT22;6283;51.330;12.374;2023-05-20T10:58:16;20.10;1.00
12438;DHT22;6283;51.330;12.374;2023-05-20T11:00:43;20.20;1.00
12438;DHT22;6283;51.330;12.374;2023-05-20T11:03:10;20.20;1.00
12438;DHT22;6283;51.330;12.374;2023-05-20T11:05:38;20.20;1.00
12438;DHT22;6283;51.330;12.374;2023-05-20T11:08:07;20.20;1.00
12438;DHT22;6283;51.330;12.374;2023-05-20T11:10:34;20.30;1.00
12438;DHT22;6283;51.330;12.374;2023-05-20T11:13:01;20.40;1.00
12438;DHT22;6283;51.330;12.374;2023-05-20T11:15:27;20.50;1.00
12438;DHT22;6283;51.330;12.374;2023-05-20T11:17:53;20.60;1.00
12438;DHT22;6283;51.330;12.374;2023-05-20T11:20:20;20.70;1.00
12438;DHT22;6283;51.330;12.374;2023-05-20T11:22:46;20.90;1.00
12438;DHT22;6283;51.330;12.374;2023-05-20T11:25:13;21.00;1.00
12438;DHT22;6283;51.330;12.374;2023-05-20T11:27:39;21.30;1.00
12438;DHT22;6283;51.330;12.374;2023-05-20T11:30:06;21.50;1.00
12438;DHT22;6283;51.330;12.374;2023-05-20T11:32:32;21.80;1.00
12438;DHT22;6283;51.330;12.374;2023-05-20T11:34:57;22.10;1.00
12438;DHT22;6283;51.330;12.374;2023-05-20T11:37:23;22.40;1.00
12438;DHT22;6283;51.330;12.374;2023-05-20T11:40:02;22.50;1.00
12438;DHT22;6283;51.330;12.374;2023-05-20T11:42:32;22.70;1.00
12438;DHT22;6283;51.330;12.374;2023-05-20T11:44:59;22.80;1.00
12438;DHT22;6283;51.330;12.374;2023-05-20T11:47:25;22.80;1.00
12438;DHT22;6283;51.330;12.374;2023-05-20T11:49:55;23.00;1.00
12438;DHT22;6283;51.330;12.374;2023-05-20T11:52:21;23.10;1.00
12438;DHT22;6283;51.330;12.374;2023-05-20T11:54:52;23.10;1.00
12438;DHT22;6283;51.330;12.374;2023-05-20T11:57:18;23.10;1.00
12438;DHT22;6283;51.330;12.374;2023-05-20T11:59:46;23.10;1.00
12438;DHT22;6283;51.330;12.374;2023-05-20T12:02:12;23.10;1.00
12438;DHT22;6283;51.330;12.374;2023-05-20T12:04:38;23.10;1.00
12438;DHT22;6283;51.330;12.374;2023-05-20T12:07:03;23.20;1.00
12438;DHT22;6283;51.330;12.374;2023-05-20T12:09:33;23.40;1.00
12438;DHT22;6283;51.330;12.374;2023-05-20T12:11:59;23.70;1.00
12438;DHT22;6283;51.330;12.374;2023-05-20T12:14:24;23.90;1.00
12438;DHT22;6283;51.330;12.374;2023-05-20T12:16:50;24.00;1.00
12438;DHT22;6283;51.330;12.374;2023-05-20T12:19:18;24.20;1.00
12438;DHT22;6283;51.330;12.374;2023-05-20T12:21:43;24.40;1.00
12438;DHT22;6283;51.330;12.374;2023-05-20T12:24:11;24.50;1.00
12438;DHT22;6283;51.330;12.374;2023-05-20T12:26:37;24.70;1.00
12438;DHT22;6283;51.330;12.374;2023-05-20T12:29:03;25.00;1.00
12438;DHT22;6283;51.330;12.374;2023-05-20T12:31:28;25.10;1.00
12438;DHT22;6283;51.330;12.374;2023-05-20T12:33:54;25.30;1.00
12438;DHT22;6283;51.330;12.374;2023-05-20T12:36:20;25.50;1.00
12438;DHT22;6283;51.330;12.374;2023-05-20T12:38:45;25.70;1.00
12438;DHT22;6283;51.330;12.374;2023-05-20T12:41:11;25.80;1.00
12438;DHT22;6283;51.330;12.374;2023-05-20T12:43:37;26.00;1.00
12438;DHT22;6283;51.330;12.374;2023-05-20T12:46:02;25.90;1.00
12438;DHT22;6283;51.330;12.374;2023-05-20T12:48:28;25.80;1.00
12438;DHT22;6283;51.330;12.374;2023-05-20T12:50:54;25.70;1.00
12438;DHT22;6283;51.330;12.374;2023-05-20T12:53:19;25.80;1.00
12438;DHT22;6283;51.330;12.374;2023-05-20T12:55:45;25.80;1.00
12438;DHT22;6283;51.330;12.374;2023-05-20T12:58:11;25.90;1.00
12438;DHT22;6283;51.330;12.374;2023-05-20T13:00:36;26.00;1.00
12438;DHT22;6283;51.330;12.374;2023-05-20T13:03:02;26.00;1.00
12438;DHT22;6283;51.330;12.374;2023-05-20T13:05:28;26.10;1.00
12438;DHT22;6283;51.330;12.374;2023-05-20T13:07:54;26.10;1.00
12438;DHT22;6283;51.330;12.374;2023-05-20T13:10:19;26.20;1.00
12438;DHT22;6283;51.330;12.374;2023-05-20T13:12:45;26.30;1.00
12438;DHT22;6283;51.330;12.374;2023-05-20T13:15:11;26.40;1.00
12438;DHT22;6283;51.330;12.374;2023-05-20T13:17:39;26.50;1.00
12438;DHT22;6283;51.330;12.374;2023-05-20T13:20:05;26.70;1.00
12438;DHT22;6283;51.330;12.374;2023-05-20T13:22:31;26.90;1.00
12438;DHT22;6283;51.330;12.374;2023-05-20T13:24:57;27.20;1.00
12438;DHT22;6283;51.330;12.374;2023-05-20T13:27:23;27.40;1.00
12438;DHT22;6283;51.330;12.374;2023-05-20T13:29:48;27.60;1.00
12438;DHT22;6283;51.330;12.374;2023-05-20T13:32:14;27.70;1.00
12438;DHT22;6283;51.330;12.374;2023-05-20T13:34:40;27.80;1.00
12438;DHT22;6283;51.330;12.374;2023-05-20T13:37:06;28.00;1.00
12438;DHT22;6283;51.330;12.374;2023-05-20T13:39:31;27.90;1.00
12438;DHT22;6283;51.330;12.374;2023-05-20T13:41:57;27.80;1.00
12438;DHT22;6283;51.330;12.374;2023-05-20T13:44:23;27.70;1.00
12438;DHT22;6283;51.330;12.374;2023-05-20T13:46:49;27.60;1.00
12438;DHT22;6283;51.330;12.374;2023-05-20T13:49:14;27.60;1.00
12438;DHT22;6283;51.330;12.374;2023-05-20T13:51:40;27.60;1.00
12438;DHT22;6283;51.330;12.374;2023-05-20T13:54:05;27.70;1.00
12438;DHT22;6283;51.330;12.374;2023-05-20T13:56:31;27.80;1.00
12438;DHT22;6283;51.330;12.374;2023-05-20T13:58:57;27.80;1.00
12438;DHT22;6283;51.330;12.374;2023-05-20T14:01:22;27.80;1.00
12438;DHT22;6283;51.330;12.374;2023-05-20T14:03:48;28.00;1.00
12438;DHT22;6283;51.330;12.374;2023-05-20T14:06:14;28.10;1.00
12438;DHT22;6283;51.330;12.374;2023-05-20T14:08:43;28.10;1.00
12438;DHT22;6283;51.330;12.374;2023-05-20T14:11:10;28.20;1.00
12438;DHT22;6283;51.330;12.374;2023-05-20T14:13:35;28.30;1.00
12438;DHT22;6283;51.330;12.374;2023-05-20T14:16:01;28.40;1.00
12438;DHT22;6283;51.330;12.374;2023-05-20T14:18:26;28.50;1.00
12438;DHT22;6283;51.330;12.374;2023-05-20T14:20:52;28.60;1.00
12438;DHT22;6283;51.330;12.374;2023-05-20T14:23:17;28.70;1.00
12438;DHT22;6283;51.330;12.374;2023-05-20T14:25:43;28.80;1.00
12438;DHT22;6283;51.330;12.374;2023-05-20T14:28:09;29.00;1.00
12438;DHT22;6283;51.330;12.374;2023-05-20T14:30:34;29.00;1.00
12438;DHT22;6283;51.330;12.374;2023-05-20T14:33:00;29.00;1.00
12438;DHT22;6283;51.330;12.374;2023-05-20T14:35:25;29.10;1.00
12438;DHT22;6283;51.330;12.374;2023-05-20T14:37:51;29.30;1.00
12438;DHT22;6283;51.330;12.374;2023-05-20T14:40:17;29.40;1.00
12438;DHT22;6283;51.330;12.374;2023-05-20T14:42:43;29.50;1.00
12438;DHT22;6283;51.330;12.374;2023-05-20T14:45:09;29.50;1.00
12438;DHT22;6283;51.330;12.374;2023-05-20T14:47:35;29.50;1.00
12438;DHT22;6283;51.330;12.374;2023-05-20T14:50:00;29.60;1.00
12438;DHT22;6283;51.330;12.374;2023-05-20T14:52:26;29.60;1.00
12438;DHT22;6283;51.330;12.374;2023-05-20T14:54:52;29.50;1.00
12438;DHT22;6283;51.330;12.374;2023-05-20T14:57:17;29.50;1.00
12438;DHT22;6283;51.330;12.374;2023-05-20T14:59:43;29.40;1.00
12438;DHT22;6283;51.330;12.374;2023-05-20T15:02:09;29.50;1.00
12438;DHT22;6283;51.330;12.374;2023-05-20T15:04:35;29.50;1.00
12438;DHT22;6283;51.330;12.374;2023-05-20T15:07:00;29.50;1.00
12438;DHT22;6283;51.330;12.374;2023-05-20T15:09:26;29.50;1.00
12438;DHT22;6283;51.330;12.374;2023-05-20T15:11:52;29.50;1.00
12438;DHT22;6283;51.330;12.374;2023-05-20T15:14:18;29.60;1.00
12438;DHT22;6283;51.330;12.374;2023-05-20T15:16:43;29.60;1.00
12438;DHT22;6283;51.330;12.374;2023-05-20T15:19:11;29.70;1.00
12438;DHT22;6283;51.330;12.374;2023-05-20T15:21:36;29.70;1.00
12438;DHT22;6283;51.330;12.374;2023-05-20T15:24:02;29.70;1.00
12438;DHT22;6283;51.330;12.374;2023-05-20T15:26:31;29.70;1.00
12438;DHT22;6283;51.330;12.374;2023-05-20T15:28:57;29.60;1.00
12438;DHT22;6283;51.330;12.374;2023-05-20T15:31:23;29.70;1.00
12438;DHT22;6283;51.330;12.374;2023-05-20T15:33:49;29.80;1.00
12438;DHT22;6283;51.330;12.374;2023-05-20T15:36:15;29.70;1.00
12438;DHT22;6283;51.330;12.374;2023-05-20T15:38:40;29.40;1.00
12438;DHT22;6283;51.330;12.374;2023-05-20T15:41:08;29.10;1.00
12438;DHT22;6283;51.330;12.374;2023-05-20T15:43:36;29.00;1.00
12438;DHT22;6283;51.330;12.374;2023-05-20T15:46:02;28.90;1.00
12438;DHT22;6283;51.330;12.374;2023-05-20T15:48:28;28.70;1.00
12438;DHT22;6283;51.330;12.374;2023-05-20T15:50:53;28.50;1.00
12438;DHT22;6283;51.330;12.374;2023-05-20T15:53:19;28.40;1.00
12438;DHT22;6283;51.330;12.374;2023-05-20T15:55:45;28.30;1.00